Tuesday, April 24, 2018, 8:59 PM EDT
Back to Local

KVSF, Hartness State Airport

Location: Perkinsville, VT, United States Lat: 43.35
Local Time: 8:59 PM EDT ( 0:59 GMT) Lon: -72.517
Time Zone: US/Eastern Elev: 577 ft

Show me the last for .
Show Decoded

2018-04-24 19:54 METAR KVSF 242354Z AUTO 17008KT 10SM CLR 16/M02 A3017 RMK AO2 SLP220 T01611022
                 10228 20156 51001 =
2018-04-24 18:54 METAR KVSF 242254Z AUTO 17008KT 10SM CLR 17/M03 A3016 RMK AO2 SLP218 T01721033 =
2018-04-24 17:54 METAR KVSF 242154Z AUTO 17013G23KT 10SM CLR 19/M04 A3017 RMK AO2 SLP221
                 T01941044 =
2018-04-24 16:54 METAR KVSF 242054Z AUTO 17011G18KT 10SM CLR 21/M04 A3017 RMK AO2 SLP218
                 T02111039 56023 =
2018-04-24 15:54 METAR KVSF 241954Z AUTO 16013G17KT 10SM CLR 22/M03 A3019 RMK AO2 SLP224
                 T02171033 =
2018-04-24 14:54 METAR KVSF 241854Z AUTO 17007KT 110V320 10SM CLR 22/M06 A3020 RMK AO2 SLP230
                 T02221061 =
2018-04-24 13:54 METAR KVSF 241754Z AUTO 21005KT 10SM CLR 20/M07 A3023 RMK AO2 SLP241 T02001072
                 10211 20028 56033 =
2018-04-24 12:54 METAR KVSF 241654Z AUTO 13008KT 10SM CLR 19/M01 A3026 RMK AO2 SLP249 T01941011 =
2018-04-24 11:54 METAR KVSF 241554Z AUTO 17007KT 10SM CLR 18/M01 A3031 RMK AO2 SLP265 T01831006 =
2018-04-24 10:54 METAR KVSF 241454Z AUTO 16005KT 10SM CLR 16/M01 A3033 RMK AO2 SLP274 T01561006
                 58021 =
2018-04-24 09:54 METAR KVSF 241354Z AUTO 28003KT 10SM CLR 11/M01 A3036 RMK AO2 SLP286 T01111011 =
2018-04-24 08:54 METAR KVSF 241254Z AUTO 00000KT 10SM CLR 08/M03 A3039 RMK AO2 SLP294 T00831028 =
2018-04-24 07:54 METAR KVSF 241154Z AUTO 00000KT 10SM CLR 02/M01 A3039 RMK AO2 SLP297 T00221011
                 10028 21022 51008 =
2018-04-24 06:54 METAR KVSF 241054Z AUTO 00000KT 10SM CLR M01/M02 A3039 RMK AO2 SLP295 T10061022
                 =
2018-04-24 05:54 METAR KVSF 240954Z AUTO 00000KT 10SM CLR M02/M04 A3038 RMK AO2 SLP290 T10171039
                 =
2018-04-24 04:54 METAR KVSF 240854Z AUTO 00000KT 10SM CLR M01/M03 A3037 RMK AO2 SLP288 T10111033
                 58001 =
2018-04-24 03:54 METAR KVSF 240754Z AUTO 00000KT 10SM CLR M01/M03 A3037 RMK AO2 SLP289 T10061028
                 =
2018-04-24 02:54 METAR KVSF 240654Z AUTO 00000KT 10SM CLR 00/M03 A3038 RMK AO2 SLP291 T00001033 =
2018-04-24 01:54 METAR KVSF 240554Z AUTO 00000KT 10SM CLR 01/M03 A3037 RMK AO2 SLP289 T00061033
                 10122 20006 50003 =
2018-04-24 00:54 METAR KVSF 240454Z AUTO 00000KT 10SM CLR 01/M03 A3038 RMK AO2 SLP291 T00111033
                 401891044 =
2018-04-23 23:54 METAR KVSF 240354Z AUTO 00000KT 10SM CLR 03/M03 A3037 RMK AO2 SLP289 T00281033 =
2018-04-23 22:54 METAR KVSF 240254Z AUTO 00000KT 10SM CLR 04/M02 A3036 RMK AO2 SLP286 T00391022
                 50009 =
2018-04-23 21:54 METAR KVSF 240154Z AUTO 00000KT 10SM CLR 06/M02 A3036 RMK AO2 SLP287 T00561017 =

Support USWX by starting your Amazon purchase here.